createdAt,value
2018-06-29T00:03:02.350Z,73.80
2018-06-29T00:05:29.904Z,74.60
2018-06-29T00:07:57.513Z,74.70
2018-06-29T00:10:26.105Z,75.10
2018-06-29T00:12:54.137Z,75.40
2018-06-29T00:15:22.334Z,75.60
2018-06-29T00:17:49.985Z,75.80
2018-06-29T00:20:17.728Z,75.70
2018-06-29T00:22:45.817Z,76.00
2018-06-29T00:25:13.773Z,76.20
2018-06-29T00:27:41.443Z,76.90
2018-06-29T00:30:09.145Z,77.10
2018-06-29T00:32:36.714Z,78.00
2018-06-29T00:35:04.621Z,78.40
2018-06-29T00:37:32.196Z,79.00
2018-06-29T00:39:59.798Z,80.10
2018-06-29T00:42:27.365Z,80.00
2018-06-29T00:44:54.953Z,80.30
2018-06-29T00:47:22.537Z,81.10
2018-06-29T00:49:50.105Z,82.00
2018-06-29T00:52:17.667Z,82.20
2018-06-29T00:54:45.251Z,82.30
2018-06-29T00:57:12.805Z,84.40
2018-06-29T00:59:40.417Z,84.00
2018-06-29T01:02:08.069Z,85.40
2018-06-29T01:04:35.665Z,86.40
2018-06-29T01:07:03.358Z,86.90
2018-06-29T01:09:30.942Z,86.80
2018-06-29T01:11:58.556Z,87.20
2018-06-29T01:14:26.125Z,88.50
2018-06-29T01:16:53.701Z,87.80
2018-06-29T01:19:21.304Z,88.80
2018-06-29T01:21:48.884Z,88.20
2018-06-29T01:24:16.457Z,88.50
2018-06-29T01:26:44.045Z,89.20
2018-06-29T01:29:11.665Z,89.50
2018-06-29T01:31:39.300Z,90.40
2018-06-29T01:34:06.958Z,90.60
2018-06-29T01:36:34.525Z,90.40
2018-06-29T01:39:02.225Z,90.50
2018-06-29T01:41:29.916Z,90.70
2018-06-29T01:43:57.447Z,90.80
2018-06-29T01:46:25.025Z,91.50
2018-06-29T01:48:52.619Z,91.40
2018-06-29T01:51:20.199Z,91.40
2018-06-29T01:53:47.795Z,90.60
2018-06-29T01:56:15.605Z,91.80
2018-06-29T01:58:43.277Z,91.80
2018-06-29T02:01:10.952Z,91.80
2018-06-29T02:03:39.677Z,92.20
2018-06-29T02:06:07.246Z,92.80
2018-06-29T02:08:34.846Z,92.50
2018-06-29T02:11:02.425Z,93.00
2018-06-29T02:13:30.020Z,92.80
2018-06-29T02:15:57.645Z,93.30
2018-06-29T02:18:25.306Z,93.30
2018-06-29T02:20:52.903Z,93.50
2018-06-29T02:23:20.525Z,93.60
2018-06-29T02:25:48.124Z,93.80
2018-06-29T02:28:15.705Z,94.00
2018-06-29T02:30:43.396Z,94.10
2018-06-29T02:33:10.857Z,94.20
2018-06-29T02:35:38.433Z,94.70
2018-06-29T02:38:06.059Z,94.60
2018-06-29T02:40:33.604Z,94.80
2018-06-29T02:43:01.161Z,95.20
2018-06-29T02:45:28.726Z,94.60
2018-06-29T02:47:56.325Z,94.60
2018-06-29T02:50:23.887Z,94.80
2018-06-29T02:52:51.553Z,95.20
2018-06-29T02:55:19.129Z,95.20
2018-06-29T02:57:46.675Z,95.60
2018-06-29T03:00:14.257Z,95.60
2018-06-29T03:02:41.830Z,95.50
2018-06-29T03:05:09.374Z,95.40
2018-06-29T03:07:36.924Z,96.40
2018-06-29T03:10:04.482Z,96.50
2018-06-29T03:12:32.053Z,96.50
2018-06-29T03:14:59.648Z,96.40
2018-06-29T03:17:27.195Z,96.40
2018-06-29T03:19:54.721Z,96.80
2018-06-29T03:22:22.677Z,96.60
2018-06-29T03:24:50.245Z,96.90
2018-06-29T03:27:17.800Z,97.30
2018-06-29T03:29:45.384Z,97.50
2018-06-29T03:32:12.970Z,98.00
2018-06-29T03:34:40.546Z,98.30
2018-06-29T03:37:08.290Z,97.90
2018-06-29T03:39:36.011Z,98.20
2018-06-29T03:42:03.645Z,97.50
2018-06-29T03:44:31.198Z,98.50
2018-06-29T03:46:58.812Z,98.30
2018-06-29T03:51:53.900Z,98.00
2018-06-29T03:54:21.513Z,97.90
2018-06-29T03:56:49.064Z,97.70
2018-06-29T03:59:16.658Z,98.40
2018-06-29T04:01:44.284Z,98.60
2018-06-29T04:04:11.950Z,98.60
2018-06-29T04:06:39.539Z,98.70
2018-06-29T04:09:08.416Z,98.40
2018-06-29T04:11:36.192Z,98.00
2018-06-29T04:14:04.110Z,98.20
2018-06-29T04:16:31.872Z,97.80
2018-06-29T04:21:26.990Z,98.40
2018-06-29T04:26:22.340Z,97.40
2018-06-29T04:28:49.912Z,97.70
2018-06-29T04:31:17.494Z,97.70
2018-06-29T04:33:45.061Z,97.20
2018-06-29T04:36:12.677Z,97.60
2018-06-29T04:38:40.250Z,97.00
2018-06-29T04:41:08.201Z,96.20
2018-06-29T04:43:35.753Z,95.60
2018-06-29T04:46:03.380Z,95.10
2018-06-29T04:48:30.929Z,95.70
2018-06-29T04:50:58.509Z,96.20
2018-06-29T04:53:26.158Z,96.50
2018-06-29T04:55:53.654Z,96.50
2018-06-29T04:58:21.317Z,96.50
2018-06-29T05:00:49.475Z,96.20
2018-06-29T05:05:44.734Z,95.90
2018-06-29T05:08:12.285Z,96.30
2018-06-29T05:10:39.853Z,96.40
2018-06-29T05:13:07.534Z,96.10
2018-06-29T05:15:35.227Z,96.50
2018-06-29T05:18:02.750Z,96.10
2018-06-29T05:20:30.321Z,96.60
2018-06-29T05:22:57.906Z,96.70
2018-06-29T05:25:25.558Z,96.10
2018-06-29T05:27:53.164Z,96.20
2018-06-29T05:30:20.788Z,96.10
2018-06-29T05:32:48.345Z,96.00
2018-06-29T05:35:15.956Z,96.10
2018-06-29T05:37:43.522Z,95.90
2018-06-29T05:40:11.134Z,95.10
2018-06-29T05:42:38.737Z,94.90
2018-06-29T05:45:06.538Z,94.70
2018-06-29T05:47:34.091Z,94.50
2018-06-29T05:50:01.634Z,94.30
2018-06-29T05:52:29.238Z,94.30
2018-06-29T05:54:56.776Z,94.00
2018-06-29T05:57:24.377Z,93.80
2018-06-29T05:59:51.925Z,93.60
2018-06-29T06:02:19.651Z,93.30
2018-06-29T06:04:47.266Z,93.00
2018-06-29T06:07:14.832Z,92.60
2018-06-29T06:09:42.455Z,92.80
2018-06-29T06:12:10.082Z,92.60
2018-06-29T06:14:37.716Z,92.80
2018-06-29T06:17:05.305Z,91.90
2018-06-29T06:19:44.278Z,91.90
2018-06-29T06:22:11.842Z,91.90
2018-06-29T06:24:39.412Z,91.60
2018-06-29T06:27:07.124Z,91.20
2018-06-29T06:29:34.761Z,90.90
2018-06-29T06:32:02.340Z,90.50
2018-06-29T06:34:29.910Z,89.80
2018-06-29T06:36:57.518Z,89.60
2018-06-29T06:39:25.295Z,88.80
2018-06-29T06:41:52.884Z,88.00
2018-06-29T06:44:20.442Z,87.30
2018-06-29T06:46:48.042Z,84.80
2018-06-29T06:49:15.634Z,83.00
2018-06-29T06:51:43.242Z,82.40
2018-06-29T06:54:10.830Z,82.00
2018-06-29T06:56:38.432Z,81.50
2018-06-29T06:59:06.053Z,80.60
2018-06-29T07:01:33.670Z,79.30
2018-06-29T07:04:01.287Z,77.90
2018-06-29T07:06:28.837Z,77.00
2018-06-29T07:08:56.416Z,77.20
2018-06-29T07:11:24.004Z,76.30
2018-06-29T07:13:51.568Z,73.60
2018-06-29T07:16:19.174Z,69.50
2018-06-29T07:18:46.739Z,64.30
2018-06-29T07:21:14.365Z,59.60
2018-06-29T07:23:42.042Z,56.00
2018-06-29T07:26:09.706Z,56.20
2018-06-29T07:28:37.309Z,56.60
2018-06-29T07:31:04.917Z,57.00
2018-06-29T07:33:32.497Z,57.60
2018-06-29T07:36:00.129Z,56.30
2018-06-29T07:38:27.697Z,53.80
2018-06-29T07:40:55.229Z,48.40
2018-06-29T07:43:22.805Z,43.20
2018-06-29T07:45:50.429Z,38.60
2018-06-29T07:48:18.058Z,35.30
2018-06-29T07:50:45.713Z,34.00
2018-06-29T07:53:13.239Z,34.40
2018-06-29T07:55:40.826Z,32.60
2018-06-29T07:58:08.448Z,31.80
2018-06-29T08:00:36.115Z,29.70
2018-06-29T08:03:03.729Z,28.70
2018-06-29T08:05:31.290Z,29.10
2018-06-29T08:07:58.897Z,28.30
2018-06-29T08:10:26.434Z,27.10
2018-06-29T08:12:54.018Z,26.40
2018-06-29T08:15:21.572Z,26.00
2018-06-29T08:17:49.193Z,25.30
2018-06-29T08:20:16.830Z,25.20
2018-06-29T08:22:44.371Z,24.20
2018-06-29T08:25:13.678Z,24.10
2018-06-29T08:27:41.355Z,23.70
2018-06-29T08:30:09.861Z,23.20
2018-06-29T08:32:37.784Z,23.10
2018-06-29T08:35:05.460Z,23.20
2018-06-29T08:37:33.081Z,23.00
2018-06-29T08:40:00.749Z,23.30
2018-06-29T08:42:28.349Z,23.10
2018-06-29T08:44:55.913Z,22.70
2018-06-29T08:47:23.554Z,22.00
2018-06-29T08:49:51.123Z,22.10
2018-06-29T08:52:18.746Z,21.50
2018-06-29T08:54:46.426Z,21.60
2018-06-29T08:57:13.977Z,21.50
2018-06-29T08:59:41.529Z,21.80
2018-06-29T09:04:36.624Z,22.70
2018-06-29T09:07:04.213Z,23.00
2018-06-29T09:09:31.766Z,22.70
2018-06-29T09:11:59.385Z,22.80
2018-06-29T09:14:26.965Z,22.70
2018-06-29T09:16:54.573Z,23.80
2018-06-29T09:19:22.210Z,23.80
2018-06-29T09:21:49.766Z,23.80
2018-06-29T09:24:17.428Z,22.30
2018-06-29T09:26:45.021Z,22.30
2018-06-29T09:29:12.856Z,22.20
2018-06-29T09:31:40.537Z,21.70
2018-06-29T09:34:08.134Z,22.20
2018-06-29T09:36:35.754Z,22.40
2018-06-29T09:39:05.788Z,22.10
2018-06-29T09:41:33.313Z,22.50
2018-06-29T09:44:00.942Z,22.20
2018-06-29T09:46:28.520Z,21.40
2018-06-29T09:48:56.103Z,20.60
2018-06-29T09:51:23.931Z,20.30
2018-06-29T09:53:51.500Z,20.20
2018-06-29T09:58:46.580Z,20.00
2018-06-29T10:01:14.213Z,19.60
2018-06-29T10:03:41.709Z,19.80
2018-06-29T10:06:09.345Z,19.70
2018-06-29T10:08:36.920Z,19.30
2018-06-29T10:11:04.574Z,19.20
2018-06-29T10:13:32.132Z,19.90
2018-06-29T10:15:59.740Z,20.30
2018-06-29T10:18:27.329Z,20.50
2018-06-29T10:20:54.964Z,21.00
2018-06-29T10:23:22.540Z,21.70
2018-06-29T10:25:50.125Z,21.70
2018-06-29T10:28:17.705Z,20.50
2018-06-29T10:30:45.319Z,20.70
2018-06-29T10:33:12.889Z,20.70
2018-06-29T10:35:40.481Z,20.20
2018-06-29T10:38:08.114Z,20.20
2018-06-29T10:40:35.689Z,20.90
2018-06-29T10:43:03.330Z,20.40
2018-06-29T10:45:30.893Z,20.60
2018-06-29T10:47:58.477Z,20.50
2018-06-29T10:50:26.041Z,20.70
2018-06-29T10:52:53.664Z,20.80
2018-06-29T10:55:21.253Z,21.30
2018-06-29T10:57:48.844Z,21.50
2018-06-29T11:00:16.448Z,22.30
2018-06-29T11:02:44.923Z,22.40
2018-06-29T11:05:12.496Z,22.50
2018-06-29T11:07:40.325Z,22.40
2018-06-29T11:10:08.627Z,22.10
2018-06-29T11:12:36.217Z,21.90
2018-06-29T11:15:03.977Z,21.50
2018-06-29T11:17:31.590Z,21.20
2018-06-29T11:19:59.162Z,20.80
2018-06-29T11:22:26.750Z,20.70
2018-06-29T11:24:54.370Z,20.70
2018-06-29T11:27:21.968Z,20.70
2018-06-29T11:29:49.577Z,21.00
2018-06-29T11:34:44.765Z,21.80
2018-06-29T11:39:46.802Z,22.70
2018-06-29T11:42:14.422Z,24.20
2018-06-29T11:44:42.013Z,24.60
2018-06-29T11:47:09.617Z,24.00
2018-06-29T11:49:37.209Z,25.00
2018-06-29T11:52:04.903Z,24.90
2018-06-29T11:54:32.448Z,24.60
2018-06-29T11:57:00.055Z,24.10
2018-06-29T11:59:27.713Z,23.60
2018-06-29T12:01:55.252Z,23.80
2018-06-29T12:04:22.893Z,24.00
2018-06-29T12:06:50.469Z,23.90
2018-06-29T12:09:18.018Z,24.30
2018-06-29T12:11:45.606Z,24.40
2018-06-29T12:14:13.269Z,24.50
2018-06-29T12:16:40.905Z,24.50
2018-06-29T12:19:08.896Z,24.80
2018-06-29T12:21:36.605Z,25.10
2018-06-29T12:24:04.429Z,25.20
2018-06-29T12:26:32.279Z,25.50
2018-06-29T12:29:00.348Z,26.00
2018-06-29T12:31:28.238Z,26.20
2018-06-29T12:33:56.041Z,26.70
2018-06-29T12:36:23.888Z,27.30
2018-06-29T12:38:51.814Z,27.60
2018-06-29T12:41:19.717Z,27.70
2018-06-29T12:43:47.570Z,27.60
2018-06-29T12:46:15.514Z,27.40
2018-06-29T12:48:43.310Z,27.50
2018-06-29T12:51:11.130Z,27.70
2018-06-29T12:53:39.014Z,28.10
2018-06-29T12:56:06.879Z,28.10
2018-06-29T12:58:34.748Z,27.80
2018-06-29T13:01:02.559Z,28.00
2018-06-29T13:03:30.527Z,27.90
2018-06-29T13:05:58.393Z,27.70
2018-06-29T13:08:26.278Z,27.60
2018-06-29T13:10:54.134Z,27.60
2018-06-29T13:13:21.982Z,27.90
2018-06-29T13:15:49.781Z,27.70
2018-06-29T13:18:17.662Z,27.60
2018-06-29T13:20:45.482Z,27.60
2018-06-29T13:23:13.326Z,27.80
2018-06-29T13:25:41.121Z,28.20
2018-06-29T13:28:08.946Z,28.60
2018-06-29T13:30:36.790Z,28.70
2018-06-29T13:33:04.508Z,29.10
2018-06-29T13:37:59.994Z,28.90
2018-06-29T13:40:27.746Z,29.40
2018-06-29T13:42:55.561Z,29.40
2018-06-29T13:45:23.359Z,29.40
2018-06-29T13:47:51.227Z,29.50
2018-06-29T13:50:19.021Z,29.10
2018-06-29T13:52:46.863Z,29.10
2018-06-29T13:55:14.698Z,28.90
2018-06-29T13:57:42.563Z,29.30
2018-06-29T14:00:10.367Z,29.20
2018-06-29T14:02:38.204Z,29.30
2018-06-29T14:05:05.971Z,29.20
2018-06-29T14:07:33.860Z,29.70
2018-06-29T14:10:01.712Z,29.50
2018-06-29T14:12:29.607Z,29.80
2018-06-29T14:14:57.495Z,29.80
2018-06-29T14:17:25.366Z,29.50
2018-06-29T14:19:53.388Z,29.70
2018-06-29T14:22:21.479Z,29.30
2018-06-29T14:24:49.258Z,30.00
2018-06-29T14:27:17.209Z,29.50
2018-06-29T14:29:45.137Z,29.30
2018-06-29T14:32:15.019Z,30.10
2018-06-29T14:34:46.315Z,30.30
2018-06-29T14:37:14.318Z,31.20
2018-06-29T14:39:42.204Z,31.20
2018-06-29T14:42:10.122Z,31.10
2018-06-29T14:44:37.895Z,31.40
2018-06-29T14:47:05.722Z,30.50
2018-06-29T14:49:33.474Z,30.50
2018-06-29T14:54:28.987Z,30.70
2018-06-29T14:56:56.874Z,31.40
2018-06-29T14:59:24.726Z,30.40
2018-06-29T15:01:52.630Z,31.50
2018-06-29T15:04:20.441Z,31.80
2018-06-29T15:06:48.283Z,32.40
2018-06-29T15:09:16.150Z,32.20
2018-06-29T15:11:44.026Z,32.40
2018-06-29T15:14:11.858Z,32.00
2018-06-29T15:16:39.698Z,32.10
2018-06-29T15:19:07.662Z,31.90
2018-06-29T15:21:35.521Z,32.10
2018-06-29T15:24:03.481Z,32.10
2018-06-29T15:26:31.586Z,31.90
2018-06-29T15:28:59.403Z,32.10
2018-06-29T15:31:27.253Z,32.50
2018-06-29T15:33:55.103Z,32.00
2018-06-29T15:36:22.954Z,32.20
2018-06-29T15:38:50.790Z,32.20
2018-06-29T15:41:18.725Z,32.60
2018-06-29T15:43:46.635Z,32.00
2018-06-29T15:46:14.706Z,32.30
2018-06-29T15:48:42.650Z,32.50
2018-06-29T15:51:10.564Z,32.40
2018-06-29T15:53:38.399Z,32.20
2018-06-29T15:56:06.379Z,32.10
2018-06-29T15:58:34.307Z,31.80
2018-06-29T16:01:02.146Z,31.20
2018-06-29T16:03:30.005Z,31.00
2018-06-29T16:05:57.791Z,31.40
2018-06-29T16:08:25.624Z,31.80
2018-06-29T16:10:53.413Z,31.80
2018-06-29T16:13:21.356Z,31.80
2018-06-29T16:15:49.179Z,31.90
2018-06-29T16:18:17.033Z,30.60
2018-06-29T16:20:44.885Z,31.50
2018-06-29T16:23:13.118Z,31.80
2018-06-29T16:25:40.965Z,31.40
2018-06-29T16:28:08.818Z,31.90
2018-06-29T16:30:36.678Z,31.90
2018-06-29T16:33:04.496Z,31.90
2018-06-29T16:35:32.507Z,31.80
2018-06-29T16:38:00.351Z,32.40
2018-06-29T16:40:28.212Z,32.20
2018-06-29T16:42:56.002Z,32.50
2018-06-29T16:45:23.861Z,32.60
2018-06-29T16:47:51.718Z,32.60
2018-06-29T16:50:19.804Z,32.60
2018-06-29T16:52:54.598Z,32.50
2018-06-29T16:55:22.450Z,32.70
2018-06-29T16:57:50.281Z,32.40
2018-06-29T17:00:18.281Z,32.20
2018-06-29T17:02:46.140Z,32.80
2018-06-29T17:05:14.086Z,32.60
2018-06-29T17:07:41.835Z,33.20
2018-06-29T17:10:09.718Z,33.20
2018-06-29T17:12:37.855Z,33.10
2018-06-29T17:15:06.287Z,32.60
2018-06-29T17:17:34.189Z,32.30
2018-06-29T17:20:02.975Z,32.20
2018-06-29T17:22:30.828Z,32.40
2018-06-29T17:24:58.627Z,32.50
2018-06-29T17:27:26.507Z,32.80
2018-06-29T17:29:54.299Z,32.90
2018-06-29T17:32:22.121Z,33.30
2018-06-29T17:34:49.947Z,33.70
2018-06-29T17:37:17.808Z,34.00
2018-06-29T17:39:45.702Z,33.90
2018-06-29T17:42:13.682Z,34.10
2018-06-29T17:44:41.786Z,34.20
2018-06-29T17:47:09.637Z,34.50
2018-06-29T17:49:37.554Z,34.60
2018-06-29T17:52:05.630Z,34.90
2018-06-29T17:54:33.525Z,35.10
2018-06-29T17:57:01.357Z,35.30
2018-06-29T17:59:29.277Z,35.60
2018-06-29T18:01:57.202Z,35.80
2018-06-29T18:04:25.151Z,36.10
2018-06-29T18:06:53.301Z,36.00
2018-06-29T18:09:21.132Z,36.10
2018-06-29T18:11:49.090Z,36.30
2018-06-29T18:14:16.881Z,36.70
2018-06-29T18:16:44.738Z,37.10
2018-06-29T18:19:12.683Z,37.30
2018-06-29T18:21:40.571Z,37.20
2018-06-29T18:24:08.406Z,37.30
2018-06-29T18:26:36.335Z,37.60
2018-06-29T18:29:04.526Z,37.70
2018-06-29T18:31:32.431Z,38.20
2018-06-29T18:34:01.213Z,38.50
2018-06-29T18:36:29.047Z,38.90
2018-06-29T18:38:56.862Z,39.50
2018-06-29T18:41:24.713Z,39.90
2018-06-29T18:43:52.625Z,40.40
2018-06-29T18:46:20.566Z,41.20
2018-06-29T18:48:48.464Z,42.50
2018-06-29T18:51:16.451Z,44.50
2018-06-29T18:53:44.307Z,45.30
2018-06-29T18:56:12.210Z,46.00
2018-06-29T18:58:40.071Z,46.70
2018-06-29T19:01:08.376Z,47.50
2018-06-29T19:03:36.206Z,47.90
2018-06-29T19:06:04.232Z,48.90
2018-06-29T19:08:32.199Z,49.60
2018-06-29T19:11:00.106Z,50.40
2018-06-29T19:13:27.997Z,51.00
2018-06-29T19:15:55.958Z,51.30
2018-06-29T19:18:23.927Z,51.90
2018-06-29T19:20:51.729Z,52.40
2018-06-29T19:23:19.662Z,52.80
2018-06-29T19:25:47.616Z,53.40
2018-06-29T19:28:15.551Z,53.20
2018-06-29T19:30:43.498Z,53.60
2018-06-29T19:33:11.323Z,54.50
2018-06-29T19:35:39.287Z,54.70
2018-06-29T19:38:07.242Z,55.20
2018-06-29T19:40:35.127Z,55.70
2018-06-29T19:43:03.046Z,56.80
2018-06-29T19:45:30.998Z,56.50
2018-06-29T19:47:58.829Z,56.80
2018-06-29T19:50:26.663Z,57.20
2018-06-29T19:52:54.542Z,58.00
2018-06-29T19:55:22.462Z,58.40
2018-06-29T20:00:18.007Z,59.30
2018-06-29T20:02:46.391Z,59.50
2018-06-29T20:05:14.291Z,59.90
2018-06-29T20:07:42.192Z,60.50
2018-06-29T20:10:10.095Z,60.90
2018-06-29T20:12:37.984Z,60.70
2018-06-29T20:15:07.435Z,61.20
2018-06-29T20:17:35.351Z,61.10
2018-06-29T20:20:03.351Z,62.10
2018-06-29T20:22:31.146Z,61.70
2018-06-29T20:24:58.986Z,62.30
2018-06-29T20:27:26.853Z,62.40
2018-06-29T20:29:54.756Z,62.50
2018-06-29T20:32:22.575Z,63.70
2018-06-29T20:34:50.411Z,63.90
2018-06-29T20:37:18.323Z,64.60
2018-06-29T20:39:46.233Z,64.60
2018-06-29T20:42:14.141Z,65.20
2018-06-29T20:44:42.133Z,65.60
2018-06-29T20:47:09.996Z,64.70
2018-06-29T20:49:37.798Z,65.90
2018-06-29T20:52:06.136Z,67.30
2018-06-29T20:54:34.024Z,66.90
2018-06-29T20:57:01.919Z,67.20
2018-06-29T20:59:29.888Z,67.80
2018-06-29T21:01:57.771Z,67.80
2018-06-29T21:04:25.638Z,69.00
2018-06-29T21:06:53.547Z,69.40
2018-06-29T21:09:21.428Z,69.10
2018-06-29T21:11:49.322Z,70.20
2018-06-29T21:14:17.114Z,70.40
2018-06-29T21:16:45.051Z,70.70
2018-06-29T21:19:12.969Z,71.30
2018-06-29T21:21:40.958Z,72.00
2018-06-29T21:24:08.922Z,72.50
2018-06-29T21:26:36.809Z,72.60
2018-06-29T21:29:04.696Z,72.60
2018-06-29T21:31:33.583Z,73.60
2018-06-29T21:34:01.484Z,74.10
2018-06-29T21:36:29.366Z,74.40
2018-06-29T21:38:57.176Z,74.40
2018-06-29T21:41:25.063Z,74.50
2018-06-29T21:43:52.975Z,75.10
2018-06-29T21:46:20.859Z,75.70
2018-06-29T21:48:48.711Z,77.30
2018-06-29T21:51:16.503Z,77.80
2018-06-29T21:53:44.426Z,77.80
2018-06-29T21:56:12.318Z,77.70
2018-06-29T21:58:40.358Z,78.70
2018-06-29T22:01:08.435Z,79.10
2018-06-29T22:03:36.326Z,79.10
2018-06-29T22:06:04.310Z,78.50
2018-06-29T22:08:32.172Z,78.10
2018-06-29T22:11:00.063Z,79.10
2018-06-29T22:13:27.871Z,78.90
2018-06-29T22:15:55.683Z,79.50
2018-06-29T22:18:23.520Z,79.60
2018-06-29T22:23:19.202Z,79.60
2018-06-29T22:25:47.043Z,79.30
2018-06-29T22:28:14.999Z,79.30
2018-06-29T22:30:42.896Z,79.50
2018-06-29T22:33:10.675Z,79.60
2018-06-29T22:35:38.549Z,79.50
2018-06-29T22:38:06.446Z,79.50
2018-06-29T22:40:34.703Z,80.20
2018-06-29T22:43:02.674Z,81.40
2018-06-29T22:45:30.536Z,81.90
2018-06-29T22:47:58.389Z,82.50
2018-06-29T22:50:26.277Z,82.90
2018-06-29T22:52:54.157Z,83.60
2018-06-29T22:55:22.062Z,85.10
2018-06-29T22:57:49.950Z,86.90
2018-06-29T23:00:17.817Z,87.50
2018-06-29T23:02:45.658Z,87.70
2018-06-29T23:05:13.543Z,88.90
2018-06-29T23:07:41.457Z,90.20
2018-06-29T23:10:09.257Z,90.40
2018-06-29T23:12:37.042Z,91.00
2018-06-29T23:15:05.009Z,91.40
2018-06-29T23:17:32.889Z,91.70
2018-06-29T23:20:01.144Z,91.90
2018-06-29T23:22:29.155Z,92.20
2018-06-29T23:24:57.053Z,91.80
2018-06-29T23:27:24.882Z,93.00
2018-06-29T23:29:52.701Z,92.70
2018-06-29T23:32:20.533Z,93.10
2018-06-29T23:34:48.382Z,93.20
2018-06-29T23:37:16.255Z,93.50
2018-06-29T23:39:44.114Z,94.20
2018-06-29T23:42:11.983Z,94.60
2018-06-29T23:44:39.890Z,94.70
2018-06-29T23:47:07.756Z,95.20
2018-06-29T23:49:36.168Z,95.30
2018-06-29T23:52:04.199Z,95.70
2018-06-29T23:54:32.067Z,95.90
2018-06-29T23:56:59.923Z,96.10
2018-06-29T23:59:27.765Z,96.60
